Time;durP1;ratioP1;P1;durP2;ratioP2;P2;SDS_P1;SDS_P2;PMS_P1;PMS_P2;Temp;Humidity;BMP_temperature;BMP_pressure;BME280_temperature;BME280_humidity;BME280_pressure;Samples;Min_cycle;Max_cycle;Signal;HPM_P1;HPM_P2
2023/08/01 00:01:32;;;;;;;;;;;;;;;26.23;60.77;100825.69;5113079;28;19918;-87
2023/08/01 00:03:57;;;;;;;;;;;;;;;26.19;60.54;100816.81;5094941;28;19994;-89
2023/08/01 00:06:24;;;;;;;;;;;;;;;26.22;60.41;100821.22;5108515;28;20376;-86
2023/08/01 00:08:51;;;;;;;;;;;;;;;26.24;60.33;100822.09;5114829;28;19915;-86
2023/08/01 00:11:17;;;;;;;;;;;;;;;26.23;60.37;100815.00;5115471;28;19914;-86
2023/08/01 00:13:43;;;;;;;;;;;;;;;26.22;60.64;100823.91;5127658;28;19911;-85
2023/08/01 00:16:09;;;;;;;;;;;;;;;26.20;60.49;100822.16;5118040;28;20320;-85
2023/08/01 00:18:34;;;;;;;;;;;;;;;26.19;60.77;100822.16;5095744;28;19918;-85
2023/08/01 00:21:05;;;;;;;;;;;;;;;26.22;60.54;100821.22;5114843;28;19912;-86
2023/08/01 00:23:30;;;;;;;;;;;;;;;26.18;60.85;100821.28;5097876;28;19912;-86
2023/08/01 00:25:56;;;;;;;;;;;;;;;26.19;60.77;100827.50;5101097;28;19976;-86
2023/08/01 00:28:22;;;;;;;;;;;;;;;26.16;60.67;100825.75;5103839;28;19916;-86
2023/08/01 00:30:47;;;;;;;;;;;;;;;26.16;60.59;100828.44;5099242;28;20404;-86
2023/08/01 00:33:13;;;;;;;;;;;;;;;26.18;60.63;100833.75;5125565;28;19911;-85
2023/08/01 00:35:39;;;;;;;;;;;;;;;26.19;60.37;100831.06;5098998;28;19942;-86
2023/08/01 00:38:05;;;;;;;;;;;;;;;26.17;60.47;100830.19;5116202;28;19907;-86
2023/08/01 00:40:33;;;;;;;;;;;;;;;26.17;60.38;100824.84;5101797;28;20006;-86
2023/08/01 00:43:04;;;;;;;;;;;;;;;26.18;60.76;100829.31;5108885;28;19981;-85
2023/08/01 00:45:41;;;;;;;;;;;;;;;26.18;60.66;100823.03;5101383;28;19918;-87
2023/08/01 00:48:12;;;;;;;;;;;;;;;26.17;60.49;100822.16;5104994;28;20401;-87
2023/08/01 00:51:15;;;;;;;;;;;;;;;26.17;60.56;100822.16;5104348;28;19912;-87
2023/08/01 00:53:51;;;;;;;;;;;;;;;26.16;60.78;100815.03;5105563;28;19918;-87
2023/08/01 00:56:22;;;;;;;;;;;;;;;26.13;60.78;100812.38;5088384;28;19916;-89
2023/08/01 00:58:47;;;;;;;;;;;;;;;26.14;60.64;100818.63;5083442;28;19969;-87
2023/08/01 01:01:14;;;;;;;;;;;;;;;26.14;60.71;100822.19;5092865;28;19912;-87
2023/08/01 01:03:40;;;;;;;;;;;;;;;26.14;60.60;100816.84;5109661;28;19911;-86
2023/08/01 01:06:30;;;;;;;;;;;;;;;26.14;60.70;100818.63;5112776;28;19929;-87
2023/08/01 01:08:56;;;;;;;;;;;;;;;26.13;60.73;100820.41;5100627;28;19964;-87
2023/08/01 01:11:23;;;;;;;;;;;;;;;26.14;60.61;100818.63;5100420;28;19915;-87
2023/08/01 01:13:55;;;;;;;;;;;;;;;26.12;60.58;100820.41;5112212;28;19919;-86
2023/08/01 01:16:20;;;;;;;;;;;;;;;26.11;60.57;100819.53;5112612;28;19911;-86
2023/08/01 01:18:45;;;;;;;;;;;;;;;26.11;60.57;100815.97;5093072;28;19908;-86
2023/08/01 01:21:25;;;;;;;;;;;;;;;26.10;60.84;100814.19;5111755;27;20056;-86
2023/08/01 01:24:00;;;;;;;;;;;;;;;26.09;60.78;100813.31;5112634;28;19908;-86
2023/08/01 01:26:25;;;;;;;;;;;;;;;26.09;60.62;100810.63;5096915;28;19919;-87
2023/08/01 01:28:51;;;;;;;;;;;;;;;26.11;60.66;100813.31;5081670;28;20174;-89
2023/08/01 01:31:16;;;;;;;;;;;;;;;26.10;60.66;100812.44;5095922;27;20385;-87
2023/08/01 01:33:42;;;;;;;;;;;;;;;26.09;60.72;100805.28;5092893;28;20544;-89
2023/08/01 01:36:07;;;;;;;;;;;;;;;26.10;60.54;100816.88;5082178;28;20396;-87
2023/08/01 01:38:53;;;;;;;;;;;;;;;26.10;60.66;100809.75;5095972;28;19912;-87
2023/08/01 01:41:18;;;;;;;;;;;;;;;26.10;60.60;100809.75;5109406;28;19912;-86
2023/08/01 01:43:44;;;;;;;;;;;;;;;26.08;60.82;100810.66;5096416;28;20582;-87
2023/08/01 01:46:09;;;;;;;;;;;;;;;26.08;60.50;100813.34;5093817;28;19977;-87
2023/08/01 01:48:35;;;;;;;;;;;;;;;26.07;60.51;100812.44;5092067;28;19911;-87
2023/08/01 01:51:01;;;;;;;;;;;;;;;26.11;60.60;100813.31;5100830;27;20039;-87
2023/08/01 01:53:27;;;;;;;;;;;;;;;26.09;60.66;100815.09;5095557;28;20438;-87
2023/08/01 01:55:53;;;;;;;;;;;;;;;26.09;60.60;100817.78;5094522;28;19923;-86
2023/08/01 01:58:18;;;;;;;;;;;;;;;26.09;60.83;100812.44;5091963;28;19912;-87
2023/08/01 02:00:44;;;;;;;;;;;;;;;26.09;60.80;100815.97;5094524;28;19931;-87
2023/08/01 02:03:10;;;;;;;;;;;;;;;26.10;60.58;100823.13;5092379;28;20305;-87
2023/08/01 02:05:36;;;;;;;;;;;;;;;26.09;60.33;100817.78;5075642;28;19920;-87
2023/08/01 02:08:01;;;;;;;;;;;;;;;26.09;60.71;100821.34;5091725;28;19923;-87
2023/08/01 02:10:26;;;;;;;;;;;;;;;26.08;60.74;100827.59;5092915;28;19912;-88
2023/08/01 02:12:52;;;;;;;;;;;;;;;26.08;60.75;100824.06;5092211;28;20341;-87
2023/08/01 02:15:17;;;;;;;;;;;;;;;26.06;60.52;100825.84;5078875;28;19922;-87
2023/08/01 02:17:43;;;;;;;;;;;;;;;26.05;60.72;100830.28;5099484;28;19916;-88
2023/08/01 02:20:08;;;;;;;;;;;;;;;26.06;60.79;100831.22;5108903;28;20419;-84
2023/08/01 02:22:34;;;;;;;;;;;;;;;26.04;60.89;100820.50;5094689;28;20057;-86
2023/08/01 02:24:59;;;;;;;;;;;;;;;26.04;60.65;100824.97;5093507;28;19911;-87
2023/08/01 02:27:25;;;;;;;;;;;;;;;26.04;60.44;100833.88;5100738;28;19912;-87
2023/08/01 02:29:50;;;;;;;;;;;;;;;26.05;60.73;100830.28;5097157;28;20373;-88
2023/08/01 02:32:16;;;;;;;;;;;;;;;26.06;60.41;100829.41;5082492;28;20471;-87
2023/08/01 02:34:42;;;;;;;;;;;;;;;26.05;60.75;100829.41;5114100;27;20368;-87
2023/08/01 02:37:08;;;;;;;;;;;;;;;25.98;60.70;100826.78;5100912;28;19915;-87
2023/08/01 02:39:34;;;;;;;;;;;;;;;26.02;60.80;100830.34;5099544;28;19918;-88
2023/08/01 02:42:00;;;;;;;;;;;;;;;26.02;60.36;100830.34;5105357;28;19912;-87
2023/08/01 02:44:25;;;;;;;;;;;;;;;25.99;60.61;100830.34;5113311;28;19930;-88
2023/08/01 02:46:52;;;;;;;;;;;;;;;25.99;60.92;100833.94;5113569;28;19987;-88
2023/08/01 02:49:17;;;;;;;;;;;;;;;25.99;60.46;100831.25;5095398;28;19968;-89
2023/08/01 02:51:43;;;;;;;;;;;;;;;25.99;60.52;100825.91;5108704;28;20339;-87
2023/08/01 02:54:08;;;;;;;;;;;;;;;25.99;60.59;100831.25;5095301;28;19911;-88
2023/08/01 02:56:34;;;;;;;;;;;;;;;25.98;60.78;100829.47;5107585;27;20436;-86
2023/08/01 02:58:59;;;;;;;;;;;;;;;25.99;60.45;100841.97;5094736;28;19911;-87
2023/08/01 03:01:30;;;;;;;;;;;;;;;25.97;60.56;100840.16;5099808;27;19963;-88
2023/08/01 03:03:55;;;;;;;;;;;;;;;25.95;60.69;100839.28;5077510;28;19911;-87
2023/08/01 03:06:21;;;;;;;;;;;;;;;25.95;60.83;100840.22;5114040;27;20056;-88
2023/08/01 03:08:47;;;;;;;;;;;;;;;25.96;60.74;100843.75;5095641;27;19911;-89
2023/08/01 03:11:13;;;;;;;;;;;;;;;25.96;60.35;100838.41;5088221;27;19922;-90
2023/08/01 03:13:38;;;;;;;;;;;;;;;25.94;60.61;100841.09;5097559;28;19912;-88
2023/08/01 03:16:04;;;;;;;;;;;;;;;25.95;60.53;100842.88;5092077;28;19954;-88
2023/08/01 03:18:29;;;;;;;;;;;;;;;25.93;60.57;100843.78;5094213;27;20387;-89
2023/08/01 03:20:56;;;;;;;;;;;;;;;25.93;60.47;100838.41;5082216;28;19918;-89
2023/08/01 03:23:22;;;;;;;;;;;;;;;25.93;60.55;100838.41;5098316;27;19934;-89
2023/08/01 03:25:48;;;;;;;;;;;;;;;25.94;60.85;100840.22;5103766;27;19916;-87
2023/08/01 03:28:14;;;;;;;;;;;;;;;25.94;60.73;100842.88;5121563;27;20364;-86
2023/08/01 03:30:40;;;;;;;;;;;;;;;25.95;60.67;100841.97;5101800;27;19915;-86
2023/08/01 03:33:06;;;;;;;;;;;;;;;25.93;60.73;100846.44;5128695;27;19912;-85
2023/08/01 03:35:31;;;;;;;;;;;;;;;25.94;60.47;100845.56;5100022;28;19972;-85
2023/08/01 03:37:56;;;;;;;;;;;;;;;25.91;60.77;100845.59;5128599;27;19999;-85
2023/08/01 03:40:22;;;;;;;;;;;;;;;25.94;60.49;100851.78;5123998;27;20505;-84
2023/08/01 03:42:47;;;;;;;;;;;;;;;25.90;60.87;100842.00;5099468;27;19998;-85
2023/08/01 03:45:13;;;;;;;;;;;;;;;25.90;60.79;100850.03;5099229;28;20372;-81
2023/08/01 03:47:38;;;;;;;;;;;;;;;25.89;60.78;100855.44;5097552;27;19918;-83
2023/08/01 03:50:04;;;;;;;;;;;;;;;25.87;60.45;100850.03;5123699;27;19918;-85
2023/08/01 03:52:29;;;;;;;;;;;;;;;25.91;60.55;100856.31;5121200;27;19911;-85
2023/08/01 03:54:55;;;;;;;;;;;;;;;25.93;60.55;100862.50;5121407;28;19918;-84
2023/08/01 03:57:20;;;;;;;;;;;;;;;25.91;60.55;100857.19;5111317;28;19922;-86
2023/08/01 03:59:46;;;;;;;;;;;;;;;25.88;60.47;100865.19;5082254;28;19961;-87
2023/08/01 04:02:12;;;;;;;;;;;;;;;25.92;60.43;100866.09;5097093;28;20022;-85
2023/08/01 04:04:38;;;;;;;;;;;;;;;25.89;60.60;100875.03;5095639;28;19912;-85
2023/08/01 04:07:04;;;;;;;;;;;;;;;25.88;60.40;100875.00;5111502;28;20300;-85
2023/08/01 04:09:29;;;;;;;;;;;;;;;25.87;60.64;100870.56;5112633;28;19953;-84
2023/08/01 04:11:55;;;;;;;;;;;;;;;25.85;60.56;100870.56;5112188;28;19942;-86
2023/08/01 04:14:20;;;;;;;;;;;;;;;25.87;60.63;100878.59;5101202;28;19912;-86
2023/08/01 04:16:46;;;;;;;;;;;;;;;25.88;60.47;100872.34;5096214;28;19983;-86
2023/08/01 04:19:11;;;;;;;;;;;;;;;25.85;60.65;100881.28;5114252;28;20397;-86
2023/08/01 04:21:37;;;;;;;;;;;;;;;25.85;60.94;100878.59;5121970;28;20509;-86
2023/08/01 04:24:02;;;;;;;;;;;;;;;25.82;60.52;100873.25;5101018;28;19912;-86
2023/08/01 04:26:27;;;;;;;;;;;;;;;25.84;60.77;100873.25;5111885;28;19907;-86
2023/08/01 04:28:53;;;;;;;;;;;;;;;25.82;61.03;100870.56;5097048;28;20055;-86
2023/08/01 04:31:18;;;;;;;;;;;;;;;25.86;60.29;100872.34;5117979;28;20288;-87
2023/08/01 04:33:44;;;;;;;;;;;;;;;25.85;60.55;100875.94;5113127;27;19916;-86
2023/08/01 04:36:10;;;;;;;;;;;;;;;25.81;60.65;100876.84;5108564;28;19918;-86
2023/08/01 04:38:35;;;;;;;;;;;;;;;25.78;60.96;100880.44;5103798;27;19915;-85
2023/08/01 04:41:02;;;;;;;;;;;;;;;25.81;60.79;100884.88;5122296;27;19984;-85
2023/08/01 04:43:28;;;;;;;;;;;;;;;25.83;60.81;100892.91;5136304;27;19915;-85
2023/08/01 04:45:53;;;;;;;;;;;;;;;25.85;60.76;100893.78;5097973;28;19969;-81
2023/08/01 04:48:19;;;;;;;;;;;;;;;25.83;60.50;100890.22;5100568;28;19912;-82
2023/08/01 04:50:44;;;;;;;;;;;;;;;25.81;60.70;100892.91;5099332;28;20305;-82
2023/08/01 04:53:11;;;;;;;;;;;;;;;25.84;60.69;100886.63;5094931;28;20298;-83
2023/08/01 04:55:36;;;;;;;;;;;;;;;25.82;60.41;100886.63;5102802;28;19914;-84
2023/08/01 04:58:02;;;;;;;;;;;;;;;25.85;60.18;100891.09;5100883;28;19912;-85
2023/08/01 05:00:27;;;;;;;;;;;;;;;25.83;60.69;100890.22;5078553;27;19953;-83
2023/08/01 05:02:52;;;;;;;;;;;;;;;25.85;60.32;100893.78;5080563;28;19969;-83
2023/08/01 05:05:18;;;;;;;;;;;;;;;25.80;60.53;100897.38;5099466;28;19960;-83
2023/08/01 05:07:43;;;;;;;;;;;;;;;25.82;60.63;100900.00;5081676;28;19960;-83
2023/08/01 05:10:10;;;;;;;;;;;;;;;25.80;60.46;100916.09;5096352;28;19912;-84
2023/08/01 05:12:35;;;;;;;;;;;;;;;25.79;60.68;100905.41;5083510;28;19912;-84
2023/08/01 05:15:00;;;;;;;;;;;;;;;25.79;60.51;100908.06;5101593;28;19919;-85
2023/08/01 05:17:26;;;;;;;;;;;;;;;25.72;60.99;100901.00;5103730;27;20361;-81
2023/08/01 05:19:51;;;;;;;;;;;;;;;25.76;60.67;100900.97;5097377;28;19916;-84
2023/08/01 05:22:17;;;;;;;;;;;;;;;25.75;60.74;100898.28;5084431;28;20382;-84
2023/08/01 05:24:42;;;;;;;;;;;;;;;25.74;60.54;100905.44;5103914;28;19912;-85
2023/08/01 05:27:08;;;;;;;;;;;;;;;25.76;60.62;100908.06;5084400;28;19918;-83
2023/08/01 05:29:33;;;;;;;;;;;;;;;25.74;60.40;100907.22;5099214;27;19916;-85
2023/08/01 05:31:58;;;;;;;;;;;;;;;25.74;60.58;100913.44;5102017;28;19911;-85
2023/08/01 05:34:24;;;;;;;;;;;;;;;25.77;60.34;100913.41;5103811;28;19922;-85
2023/08/01 05:36:50;;;;;;;;;;;;;;;25.77;60.46;100905.41;5091477;28;20377;-84
2023/08/01 05:39:16;;;;;;;;;;;;;;;25.79;60.85;100910.75;5068460;28;19916;-85
2023/08/01 05:41:42;;;;;;;;;;;;;;;25.79;60.80;100916.97;5078018;28;19908;-85
2023/08/01 05:44:07;;;;;;;;;;;;;;;25.78;60.31;100917.88;5114513;28;20454;-85
2023/08/01 05:46:33;;;;;;;;;;;;;;;25.79;61.00;100910.75;5079028;28;19919;-84
2023/08/01 05:48:58;;;;;;;;;;;;;;;25.79;60.26;100908.94;5097244;28;19911;-84
2023/08/01 05:51:24;;;;;;;;;;;;;;;25.78;59.91;100909.88;5113967;28;19908;-85
2023/08/01 05:53:49;;;;;;;;;;;;;;;25.78;59.68;100911.63;5101826;27;20455;-86
2023/08/01 05:56:15;;;;;;;;;;;;;;;25.79;60.09;100914.31;5121387;27;19911;-84
2023/08/01 05:58:41;;;;;;;;;;;;;;;25.76;60.49;100902.72;5096131;28;20395;-84
2023/08/01 06:01:06;;;;;;;;;;;;;;;25.80;60.26;100905.41;5114092;28;19908;-85
2023/08/01 06:03:34;;;;;;;;;;;;;;;25.77;59.96;100909.88;5095751;28;19920;-85
2023/08/01 06:05:59;;;;;;;;;;;;;;;25.81;60.29;100911.63;5104644;27;20003;-86
2023/08/01 06:08:25;;;;;;;;;;;;;;;25.80;59.65;100902.72;5120249;27;20005;-86
2023/08/01 06:10:50;;;;;;;;;;;;;;;25.78;59.89;100900.91;5113575;27;20316;-85
2023/08/01 06:13:16;;;;;;;;;;;;;;;25.81;59.71;100903.59;5101610;28;20384;-85
2023/08/01 06:15:41;;;;;;;;;;;;;;;25.79;59.63;100894.69;5105252;27;20638;-85
2023/08/01 06:18:07;;;;;;;;;;;;;;;25.81;59.50;100895.56;5125216;27;19911;-84
2023/08/01 06:20:32;;;;;;;;;;;;;;;25.80;60.43;100891.09;5117548;27;19915;-84
2023/08/01 06:22:59;;;;;;;;;;;;;;;25.78;59.38;100899.16;5127155;27;20469;-86
2023/08/01 06:25:24;;;;;;;;;;;;;;;25.77;60.04;100889.34;5100224;28;19912;-86
2023/08/01 06:27:50;;;;;;;;;;;;;;;25.79;60.08;100892.00;5119323;27;19911;-85
2023/08/01 06:30:15;;;;;;;;;;;;;;;25.82;60.08;100889.31;5112047;27;20504;-85
2023/08/01 06:32:40;;;;;;;;;;;;;;;25.80;59.68;100884.00;5121801;27;19911;-86
2023/08/01 06:35:06;;;;;;;;;;;;;;;25.77;59.83;100886.66;5115091;27;19911;-85
2023/08/01 06:37:31;;;;;;;;;;;;;;;25.76;59.45;100894.69;5119907;27;19915;-85
2023/08/01 06:39:57;;;;;;;;;;;;;;;25.78;59.69;100891.13;5123877;27;19911;-87
2023/08/01 06:42:23;;;;;;;;;;;;;;;25.77;59.59;100885.78;5095721;28;19931;-85
2023/08/01 06:44:48;;;;;;;;;;;;;;;25.78;59.29;100891.13;5092243;28;19908;-86
2023/08/01 06:47:14;;;;;;;;;;;;;;;25.79;59.28;100878.63;5095956;28;20503;-87
2023/08/01 06:49:39;;;;;;;;;;;;;;;25.80;59.06;100891.09;5101194;28;19908;-86
2023/08/01 06:52:05;;;;;;;;;;;;;;;25.82;59.10;100885.75;5097139;28;19912;-86
2023/08/01 06:54:32;;;;;;;;;;;;;;;25.82;59.35;100880.41;5091332;28;20430;-86
2023/08/01 06:56:59;;;;;;;;;;;;;;;25.80;59.27;100889.34;5096281;27;19919;-84
2023/08/01 06:59:25;;;;;;;;;;;;;;;25.80;59.02;100878.63;5100802;28;19951;-83
2023/08/01 07:01:50;;;;;;;;;;;;;;;25.80;59.22;100875.97;5091687;28;19951;-86
2023/08/01 07:04:16;;;;;;;;;;;;;;;25.79;59.00;100878.63;5090918;28;19908;-83
2023/08/01 07:06:42;;;;;;;;;;;;;;;25.80;59.27;100877.72;5091721;28;19923;-83
2023/08/01 07:09:08;;;;;;;;;;;;;;;25.81;59.02;100879.53;5091013;28;19971;-85
2023/08/01 07:11:33;;;;;;;;;;;;;;;25.81;59.35;100882.19;5092902;28;20387;-82
2023/08/01 07:13:59;;;;;;;;;;;;;;;25.79;59.00;100887.53;5091373;28;20321;-84
2023/08/01 07:16:24;;;;;;;;;;;;;;;25.81;59.08;100879.53;5106928;27;20369;-85
2023/08/01 07:18:50;;;;;;;;;;;;;;;25.82;59.21;100880.41;5091594;28;19915;-84
2023/08/01 07:21:16;;;;;;;;;;;;;;;25.81;59.03;100882.19;5098569;28;19966;-85
2023/08/01 07:23:41;;;;;;;;;;;;;;;25.86;59.21;100877.69;5091403;28;20388;-84
2023/08/01 07:26:07;;;;;;;;;;;;;;;25.84;58.90;100871.47;5089287;28;19968;-83
2023/08/01 07:28:32;;;;;;;;;;;;;;;25.81;59.26;100876.84;5091477;28;20007;-84
2023/08/01 07:31:05;;;;;;;;;;;;;;;25.81;59.05;100871.50;5091152;28;20017;-83
2023/08/01 07:33:30;;;;;;;;;;;;;;;25.84;58.93;100867.91;5099988;28;19915;-84
2023/08/01 07:36:10;;;;;;;;;;;;;;;25.88;58.90;100877.69;5094534;28;19911;-85
2023/08/01 07:38:36;;;;;;;;;;;;;;;25.88;58.96;100872.34;5096200;27;20427;-84
2023/08/01 07:41:11;;;;;;;;;;;;;;;25.91;59.02;100872.34;5091179;28;19908;-85
2023/08/01 07:43:36;;;;;;;;;;;;;;;25.91;59.03;100867.00;5117323;27;20002;-84
2023/08/01 07:46:02;;;;;;;;;;;;;;;25.93;59.08;100870.53;5110944;28;19972;-84
2023/08/01 07:48:27;;;;;;;;;;;;;;;25.88;59.32;100870.53;5092528;28;20379;-84
2023/08/01 07:50:53;;;;;;;;;;;;;;;25.91;59.36;100875.91;5111290;28;19915;-85
2023/08/01 07:53:18;;;;;;;;;;;;;;;25.93;59.24;100878.56;5122660;28;19912;-86
2023/08/01 07:55:44;;;;;;;;;;;;;;;25.98;58.95;100874.06;5111364;28;20299;-85
2023/08/01 07:58:12;;;;;;;;;;;;;;;25.99;58.85;100876.75;5111291;28;20344;-84
2023/08/01 08:00:38;;;;;;;;;;;;;;;25.99;58.97;100884.78;5114936;28;19915;-84
2023/08/01 08:03:05;;;;;;;;;;;;;;;25.98;59.28;100882.09;5101087;28;19908;-84
2023/08/01 08:05:31;;;;;;;;;;;;;;;25.97;59.28;100880.31;5092893;28;19908;-84
2023/08/01 08:07:57;;;;;;;;;;;;;;;25.96;59.03;100878.56;5083681;28;19919;-84
2023/08/01 08:10:23;;;;;;;;;;;;;;;25.96;59.20;100875.88;5123228;27;20303;-85
2023/08/01 08:12:51;;;;;;;;;;;;;;;25.97;59.21;100881.22;5115372;28;19908;-85
2023/08/01 08:15:17;;;;;;;;;;;;;;;25.96;59.36;100876.75;5098234;28;19915;-83
2023/08/01 08:17:43;;;;;;;;;;;;;;;25.96;59.48;100884.78;5097427;28;19916;-84
2023/08/01 08:20:09;;;;;;;;;;;;;;;25.97;60.10;100883.00;5096731;28;20285;-85
2023/08/01 08:22:35;;;;;;;;;;;;;;;26.01;59.41;100879.38;5129483;27;19930;-84
2023/08/01 08:25:01;;;;;;;;;;;;;;;26.05;59.33;100874.91;5096799;27;20381;-84
2023/08/01 08:27:26;;;;;;;;;;;;;;;26.06;59.99;100877.59;5114962;27;19911;-83
2023/08/01 08:29:52;;;;;;;;;;;;;;;26.05;59.32;100878.47;5127187;27;20577;-84
2023/08/01 08:32:21;;;;;;;;;;;;;;;26.07;59.15;100874.00;5079757;27;20415;-84
2023/08/01 08:34:46;;;;;;;;;;;;;;;26.07;59.76;100881.13;5117054;27;19918;-83
2023/08/01 08:37:11;;;;;;;;;;;;;;;26.09;59.45;100882.91;5096313;28;19912;-84
2023/08/01 08:39:37;;;;;;;;;;;;;;;26.08;59.50;100882.94;5096488;28;20305;-85
2023/08/01 08:42:02;;;;;;;;;;;;;;;26.07;59.61;100882.03;5101885;27;19916;-85
2023/08/01 08:44:30;;;;;;;;;;;;;;;26.10;59.50;100886.44;5114643;28;20384;-85
2023/08/01 08:46:55;;;;;;;;;;;;;;;26.05;60.11;100878.47;5114189;28;19907;-84
2023/08/01 08:49:21;;;;;;;;;;;;;;;26.08;59.58;100883.81;5122559;27;19997;-85
2023/08/01 08:51:47;;;;;;;;;;;;;;;26.07;59.43;100874.00;5112162;27;19934;-85
2023/08/01 08:54:13;;;;;;;;;;;;;;;26.08;59.54;100877.59;5096836;28;19920;-85
2023/08/01 08:56:40;;;;;;;;;;;;;;;26.07;59.85;100878.47;5101208;28;20380;-84
2023/08/01 08:59:07;;;;;;;;;;;;;;;26.08;60.29;100874.91;5113596;27;19907;-84
2023/08/01 09:01:34;;;;;;;;;;;;;;;26.06;60.70;100877.59;5128472;27;20281;-85
2023/08/01 09:04:00;;;;;;;;;;;;;;;26.08;59.82;100875.78;5098763;28;19914;-84
2023/08/01 09:06:36;;;;;;;;;;;;;;;26.09;60.40;100874.88;5087810;28;20002;-83
2023/08/01 09:09:04;;;;;;;;;;;;;;;26.08;60.15;100870.44;5122724;27;20361;-84
2023/08/01 09:11:40;;;;;;;;;;;;;;;26.05;60.06;100878.47;5134629;27;19911;-84
2023/08/01 09:14:06;;;;;;;;;;;;;;;26.08;60.78;100883.81;5126145;27;19915;-84
2023/08/01 09:16:32;;;;;;;;;;;;;;;26.14;59.61;100877.50;5117176;27;19912;-84
2023/08/01 09:18:58;;;;;;;;;;;;;;;26.09;60.48;100874.88;5099233;27;19919;-83
2023/08/01 09:21:23;;;;;;;;;;;;;;;26.10;60.31;100871.31;5119329;27;19915;-84
2023/08/01 09:23:49;;;;;;;;;;;;;;;26.13;59.80;100870.38;5115184;27;19912;-83
2023/08/01 09:26:18;;;;;;;;;;;;;;;26.17;60.08;100872.13;5095572;28;20377;-83
2023/08/01 09:28:43;;;;;;;;;;;;;;;26.15;60.46;100871.25;5113849;28;19915;-83
2023/08/01 09:31:10;;;;;;;;;;;;;;;26.14;60.21;100877.50;5095674;28;20053;-84
2023/08/01 09:33:44;;;;;;;;;;;;;;;26.15;60.07;100873.94;5097144;27;19998;-84
2023/08/01 09:36:09;;;;;;;;;;;;;;;26.14;60.67;100867.69;5114525;27;19911;-84
2023/08/01 09:38:35;;;;;;;;;;;;;;;26.13;60.56;100876.63;5119485;27;19915;-83
2023/08/01 09:41:07;;;;;;;;;;;;;;;26.14;60.06;100869.47;5095455;28;19936;-85
2023/08/01 09:43:37;;;;;;;;;;;;;;;26.16;60.14;100871.25;5108695;27;19919;-84
2023/08/01 09:46:02;;;;;;;;;;;;;;;26.13;60.95;100871.25;5078503;28;19907;-84
2023/08/01 09:48:31;;;;;;;;;;;;;;;26.18;60.37;100877.50;5085161;27;20376;-85
2023/08/01 09:51:10;;;;;;;;;;;;;;;26.16;60.29;100870.34;5105753;27;19908;-85
2023/08/01 09:53:36;;;;;;;;;;;;;;;26.15;61.14;100864.13;5128117;27;19908;-84
2023/08/01 09:56:02;;;;;;;;;;;;;;;26.17;60.46;100864.09;5096547;28;19908;-84
2023/08/01 09:58:36;;;;;;;;;;;;;;;26.17;59.88;100862.31;5120702;27;19915;-85
2023/08/01 10:01:11;;;;;;;;;;;;;;;26.18;60.38;100860.50;5102842;27;19908;-84
2023/08/01 10:03:36;;;;;;;;;;;;;;;26.16;60.31;100857.88;5108266;27;19923;-83
2023/08/01 10:06:01;;;;;;;;;;;;;;;26.21;60.26;100849.78;5101603;27;19907;-85
2023/08/01 10:08:29;;;;;;;;;;;;;;;26.24;59.89;100855.09;5124160;27;20304;-85
2023/08/01 10:10:56;;;;;;;;;;;;;;;26.23;60.47;100868.53;5086694;28;19911;-85
2023/08/01 10:13:25;;;;;;;;;;;;;;;26.23;60.84;100861.38;5086758;27;19920;-85
2023/08/01 10:15:52;;;;;;;;;;;;;;;26.21;60.46;100852.47;5104058;27;19911;-87
2023/08/01 10:18:18;;;;;;;;;;;;;;;26.20;60.70;100848.91;5097139;27;20391;-83
2023/08/01 10:20:45;;;;;;;;;;;;;;;26.23;60.37;100849.78;5099549;27;19920;-84
2023/08/01 10:23:11;;;;;;;;;;;;;;;26.23;60.06;100850.66;5112912;27;19911;-85
2023/08/01 10:25:37;;;;;;;;;;;;;;;26.26;60.01;100847.06;5100979;27;19967;-85
2023/08/01 10:28:10;;;;;;;;;;;;;;;26.24;60.44;100846.19;5122122;27;20399;-84
2023/08/01 10:30:37;;;;;;;;;;;;;;;26.25;60.17;100843.50;5096862;27;19911;-87
2023/08/01 10:33:03;;;;;;;;;;;;;;;26.25;61.05;100847.97;5096230;27;19919;-85
2023/08/01 10:35:33;;;;;;;;;;;;;;;26.26;60.12;100839.91;5113073;27;19915;-86
2023/08/01 10:38:20;;;;;;;;;;;;;;;26.28;61.19;100843.47;5088805;27;19937;-86
2023/08/01 10:40:48;;;;;;;;;;;;;;;26.26;60.70;100831.88;5112578;27;19915;-84
2023/08/01 10:43:20;;;;;;;;;;;;;;;26.28;60.28;100837.22;5095246;28;19923;-87
2023/08/01 10:45:45;;;;;;;;;;;;;;;26.28;61.00;100837.22;5112727;28;19911;-85
2023/08/01 10:48:11;;;;;;;;;;;;;;;26.30;60.39;100830.06;5102341;27;20398;-85
2023/08/01 10:50:40;;;;;;;;;;;;;;;26.28;60.96;100826.53;5094681;28;19919;-87
2023/08/01 10:53:07;;;;;;;;;;;;;;;26.30;60.58;100830.06;5094873;28;19907;-87
2023/08/01 10:55:39;;;;;;;;;;;;;;;26.31;60.46;100819.34;5112858;28;20293;-85
2023/08/01 10:58:08;;;;;;;;;;;;;;;26.29;60.52;100815.81;5094106;28;19918;-85
2023/08/01 11:00:33;;;;;;;;;;;;;;;26.29;60.79;100807.78;5095872;28;19915;-83
2023/08/01 11:02:59;;;;;;;;;;;;;;;26.32;61.10;100812.22;5128377;27;19934;-83
2023/08/01 11:05:26;;;;;;;;;;;;;;;26.33;60.31;100816.63;5122374;27;19914;-85
2023/08/01 11:07:58;;;;;;;;;;;;;;;26.33;60.64;100817.56;5096931;28;19953;-87
2023/08/01 11:10:36;;;;;;;;;;;;;;;26.33;60.61;100816.63;5100118;27;19916;-86
2023/08/01 11:13:02;;;;;;;;;;;;;;;26.34;60.59;100805.03;5117822;27;19916;-84
2023/08/01 11:15:47;;;;;;;;;;;;;;;26.35;60.51;100804.13;5112403;28;19908;-86
2023/08/01 11:18:21;;;;;;;;;;;;;;;26.30;61.20;100795.28;5117055;27;19993;-85
2023/08/01 11:20:47;;;;;;;;;;;;;;;26.34;61.55;100797.00;5094108;28;19912;-86
2023/08/01 11:23:13;;;;;;;;;;;;;;;26.32;61.64;100794.34;5124745;27;20058;-83
2023/08/01 11:25:40;;;;;;;;;;;;;;;26.35;60.45;100788.06;5093034;27;19950;-85
2023/08/01 11:28:09;;;;;;;;;;;;;;;26.38;60.77;100791.59;5097350;27;19907;-86
2023/08/01 11:30:35;;;;;;;;;;;;;;;26.38;61.01;100793.41;5118131;27;19931;-84
2023/08/01 11:33:02;;;;;;;;;;;;;;;26.36;61.59;100787.19;5111547;28;20556;-84
2023/08/01 11:35:28;;;;;;;;;;;;;;;26.38;60.72;100786.25;5100210;27;19915;-85
2023/08/01 11:37:54;;;;;;;;;;;;;;;26.39;60.21;100787.13;5123780;27;20337;-84
2023/08/01 11:40:19;;;;;;;;;;;;;;;26.39;60.69;100784.44;5098922;28;19918;-85
2023/08/01 11:42:51;;;;;;;;;;;;;;;26.44;60.71;100789.75;5102655;28;19915;-85
2023/08/01 11:45:17;;;;;;;;;;;;;;;26.43;60.70;100783.50;5110683;28;20376;-86
2023/08/01 11:47:47;;;;;;;;;;;;;;;26.45;60.37;100789.75;5095044;28;20891;-84
2023/08/01 11:50:13;;;;;;;;;;;;;;;26.45;60.84;100781.72;5120469;28;20034;-84
2023/08/01 11:52:39;;;;;;;;;;;;;;;26.46;60.37;100782.59;5095733;28;19964;-85
2023/08/01 11:55:05;;;;;;;;;;;;;;;26.48;60.64;100780.78;5113236;28;19911;-85
2023/08/01 11:57:32;;;;;;;;;;;;;;;26.48;60.67;100773.66;5101981;28;19935;-88
2023/08/01 11:59:58;;;;;;;;;;;;;;;26.49;60.46;100758.47;5094196;28;19916;-85
2023/08/01 12:02:29;;;;;;;;;;;;;;;26.48;60.75;100757.59;5090640;28;19915;-85
2023/08/01 12:04:55;;;;;;;;;;;;;;;26.47;59.94;100762.97;5098480;28;20001;-87
2023/08/01 12:07:20;;;;;;;;;;;;;;;26.51;60.33;100762.00;5098438;28;19959;-85
2023/08/01 12:10:12;;;;;;;;;;;;;;;26.47;61.30;100757.59;5092879;28;19987;-85
2023/08/01 12:12:45;;;;;;;;;;;;;;;26.48;60.55;100752.22;5108260;28;20064;-87
2023/08/01 12:15:29;;;;;;;;;;;;;;;26.50;60.53;100752.19;5087257;28;19907;-85
2023/08/01 12:17:55;;;;;;;;;;;;;;;26.51;60.78;100756.66;5107255;28;19938;-84
2023/08/01 12:20:20;;;;;;;;;;;;;;;26.50;61.44;100758.47;5096525;28;19930;-84
2023/08/01 12:22:49;;;;;;;;;;;;;;;26.51;60.43;100753.97;5112495;28;19907;-86
2023/08/01 12:25:15;;;;;;;;;;;;;;;26.52;60.73;100751.28;5109082;28;19964;-84
2023/08/01 12:27:43;;;;;;;;;;;;;;;26.51;60.97;100749.50;5093971;28;19998;-85
2023/08/01 12:30:09;;;;;;;;;;;;;;;26.51;61.23;100746.81;5096965;28;19911;-84
2023/08/01 12:32:36;;;;;;;;;;;;;;;26.53;60.63;100750.38;5115747;28;19945;-83
2023/08/01 12:35:01;;;;;;;;;;;;;;;26.56;60.41;100750.38;5118835;28;20013;-85